sensor_id;sensor_type;location;lat;lon;timestamp;P1;durP1;ratioP1;P2;durP2;ratioP2
6939;SDS011;3509;48.510;9.076;2022-08-07T00:01:54;7.85;;;7.05;;
6939;SDS011;3509;48.510;9.076;2022-08-07T00:04:20;7.60;;;6.90;;
6939;SDS011;3509;48.510;9.076;2022-08-07T00:06:46;7.80;;;7.10;;
6939;SDS011;3509;48.510;9.076;2022-08-07T00:09:12;7.63;;;6.93;;
6939;SDS011;3509;48.510;9.076;2022-08-07T00:11:37;8.43;;;6.82;;
6939;SDS011;3509;48.510;9.076;2022-08-07T00:14:03;6.90;;;6.18;;
6939;SDS011;3509;48.510;9.076;2022-08-07T00:16:29;7.15;;;6.20;;
6939;SDS011;3509;48.510;9.076;2022-08-07T00:18:54;6.88;;;6.13;;
6939;SDS011;3509;48.510;9.076;2022-08-07T00:21:20;6.97;;;6.20;;
6939;SDS011;3509;48.510;9.076;2022-08-07T00:23:46;7.78;;;6.32;;
6939;SDS011;3509;48.510;9.076;2022-08-07T00:26:11;6.93;;;6.32;;
6939;SDS011;3509;48.510;9.076;2022-08-07T00:28:37;7.38;;;6.35;;
6939;SDS011;3509;48.510;9.076;2022-08-07T00:31:07;6.68;;;5.85;;
6939;SDS011;3509;48.510;9.076;2022-08-07T00:33:34;6.57;;;6.05;;
6939;SDS011;3509;48.510;9.076;2022-08-07T00:36:02;6.22;;;5.63;;
6939;SDS011;3509;48.510;9.076;2022-08-07T00:38:30;5.40;;;4.90;;
6939;SDS011;3509;48.510;9.076;2022-08-07T00:40:56;5.55;;;4.82;;
6939;SDS011;3509;48.510;9.076;2022-08-07T00:43:22;5.88;;;5.28;;
6939;SDS011;3509;48.510;9.076;2022-08-07T00:45:48;5.72;;;5.20;;
6939;SDS011;3509;48.510;9.076;2022-08-07T00:48:14;8.75;;;5.57;;
6939;SDS011;3509;48.510;9.076;2022-08-07T00:50:40;7.90;;;5.22;;
6939;SDS011;3509;48.510;9.076;2022-08-07T00:53:06;6.78;;;4.82;;
6939;SDS011;3509;48.510;9.076;2022-08-07T00:55:31;6.10;;;5.50;;
6939;SDS011;3509;48.510;9.076;2022-08-07T00:57:58;10.30;;;5.45;;
6939;SDS011;3509;48.510;9.076;2022-08-07T01:00:23;6.50;;;5.70;;
6939;SDS011;3509;48.510;9.076;2022-08-07T01:02:49;9.32;;;5.68;;
6939;SDS011;3509;48.510;9.076;2022-08-07T01:05:16;8.18;;;5.80;;
6939;SDS011;3509;48.510;9.076;2022-08-07T01:07:42;5.70;;;5.10;;
6939;SDS011;3509;48.510;9.076;2022-08-07T01:10:08;6.70;;;5.65;;
6939;SDS011;3509;48.510;9.076;2022-08-07T01:12:34;7.40;;;5.72;;
6939;SDS011;3509;48.510;9.076;2022-08-07T01:15:01;7.78;;;5.05;;
6939;SDS011;3509;48.510;9.076;2022-08-07T01:17:28;7.35;;;6.05;;
6939;SDS011;3509;48.510;9.076;2022-08-07T01:19:55;8.32;;;5.90;;
6939;SDS011;3509;48.510;9.076;2022-08-07T01:22:25;8.32;;;6.72;;
6939;SDS011;3509;48.510;9.076;2022-08-07T01:24:51;7.72;;;6.50;;
6939;SDS011;3509;48.510;9.076;2022-08-07T01:27:18;7.88;;;6.38;;
6939;SDS011;3509;48.510;9.076;2022-08-07T01:29:44;10.88;;;6.68;;
6939;SDS011;3509;48.510;9.076;2022-08-07T01:32:09;8.13;;;6.50;;
6939;SDS011;3509;48.510;9.076;2022-08-07T01:34:35;10.20;;;5.72;;
6939;SDS011;3509;48.510;9.076;2022-08-07T01:37:01;7.65;;;6.85;;
6939;SDS011;3509;48.510;9.076;2022-08-07T01:39:28;6.97;;;6.28;;
6939;SDS011;3509;48.510;9.076;2022-08-07T01:41:54;8.27;;;6.43;;
6939;SDS011;3509;48.510;9.076;2022-08-07T01:44:20;8.80;;;6.45;;
6939;SDS011;3509;48.510;9.076;2022-08-07T01:46:46;7.85;;;6.50;;
6939;SDS011;3509;48.510;9.076;2022-08-07T01:49:12;9.48;;;6.00;;
6939;SDS011;3509;48.510;9.076;2022-08-07T01:51:37;7.80;;;6.60;;
6939;SDS011;3509;48.510;9.076;2022-08-07T01:54:06;6.95;;;5.97;;
6939;SDS011;3509;48.510;9.076;2022-08-07T01:56:48;9.25;;;6.13;;
6939;SDS011;3509;48.510;9.076;2022-08-07T01:59:28;7.28;;;6.32;;
6939;SDS011;3509;48.510;9.076;2022-08-07T02:02:09;6.90;;;6.22;;
6939;SDS011;3509;48.510;9.076;2022-08-07T02:05:22;9.95;;;6.43;;
6939;SDS011;3509;48.510;9.076;2022-08-07T02:07:34;6.97;;;5.88;;
6939;SDS011;3509;48.510;9.076;2022-08-07T02:10:03;7.30;;;6.22;;
6939;SDS011;3509;48.510;9.076;2022-08-07T02:12:30;9.35;;;6.32;;
6939;SDS011;3509;48.510;9.076;2022-08-07T02:15:00;7.03;;;6.30;;
6939;SDS011;3509;48.510;9.076;2022-08-07T02:17:26;6.68;;;5.85;;
6939;SDS011;3509;48.510;9.076;2022-08-07T02:19:53;7.75;;;6.28;;
6939;SDS011;3509;48.510;9.076;2022-08-07T02:22:20;6.57;;;5.88;;
6939;SDS011;3509;48.510;9.076;2022-08-07T02:24:48;6.40;;;5.80;;
6939;SDS011;3509;48.510;9.076;2022-08-07T02:27:17;6.82;;;5.90;;
6939;SDS011;3509;48.510;9.076;2022-08-07T02:29:47;6.47;;;5.90;;
6939;SDS011;3509;48.510;9.076;2022-08-07T02:32:13;7.65;;;5.78;;
6939;SDS011;3509;48.510;9.076;2022-08-07T02:34:41;7.63;;;5.85;;
6939;SDS011;3509;48.510;9.076;2022-08-07T02:37:08;6.80;;;6.13;;
6939;SDS011;3509;48.510;9.076;2022-08-07T02:39:35;6.20;;;5.60;;
6939;SDS011;3509;48.510;9.076;2022-08-07T02:42:04;7.10;;;6.10;;
6939;SDS011;3509;48.510;9.076;2022-08-07T02:44:31;6.60;;;6.00;;
6939;SDS011;3509;48.510;9.076;2022-08-07T02:46:58;6.80;;;6.10;;
6939;SDS011;3509;48.510;9.076;2022-08-07T02:49:25;6.50;;;5.90;;
6939;SDS011;3509;48.510;9.076;2022-08-07T02:51:51;6.38;;;5.78;;
6939;SDS011;3509;48.510;9.076;2022-08-07T02:54:19;7.43;;;6.25;;
6939;SDS011;3509;48.510;9.076;2022-08-07T02:56:47;10.65;;;6.78;;
6939;SDS011;3509;48.510;9.076;2022-08-07T02:59:16;8.32;;;6.13;;
6939;SDS011;3509;48.510;9.076;2022-08-07T03:01:43;7.03;;;6.15;;
6939;SDS011;3509;48.510;9.076;2022-08-07T03:04:10;8.65;;;6.82;;
6939;SDS011;3509;48.510;9.076;2022-08-07T03:06:38;12.15;;;7.25;;
6939;SDS011;3509;48.510;9.076;2022-08-07T03:09:05;7.57;;;6.65;;
6939;SDS011;3509;48.510;9.076;2022-08-07T03:11:33;13.52;;;7.20;;
6939;SDS011;3509;48.510;9.076;2022-08-07T03:14:01;7.80;;;7.00;;
6939;SDS011;3509;48.510;9.076;2022-08-07T03:16:31;8.18;;;7.18;;
6939;SDS011;3509;48.510;9.076;2022-08-07T03:19:00;9.45;;;7.40;;
6939;SDS011;3509;48.510;9.076;2022-08-07T03:21:26;8.13;;;7.20;;
6939;SDS011;3509;48.510;9.076;2022-08-07T03:23:53;8.25;;;7.05;;
6939;SDS011;3509;48.510;9.076;2022-08-07T03:26:20;11.02;;;7.47;;
6939;SDS011;3509;48.510;9.076;2022-08-07T03:28:49;12.13;;;7.35;;
6939;SDS011;3509;48.510;9.076;2022-08-07T03:31:15;10.45;;;7.57;;
6939;SDS011;3509;48.510;9.076;2022-08-07T03:33:55;7.90;;;6.72;;
6939;SDS011;3509;48.510;9.076;2022-08-07T03:36:24;9.07;;;7.03;;
6939;SDS011;3509;48.510;9.076;2022-08-07T03:38:51;11.02;;;7.28;;
6939;SDS011;3509;48.510;9.076;2022-08-07T03:41:19;7.97;;;7.28;;
6939;SDS011;3509;48.510;9.076;2022-08-07T03:43:45;7.82;;;7.13;;
6939;SDS011;3509;48.510;9.076;2022-08-07T03:46:11;9.48;;;7.57;;
6939;SDS011;3509;48.510;9.076;2022-08-07T03:48:38;10.48;;;7.07;;
6939;SDS011;3509;48.510;9.076;2022-08-07T03:51:04;9.48;;;7.07;;
6939;SDS011;3509;48.510;9.076;2022-08-07T03:53:31;9.02;;;7.22;;
6939;SDS011;3509;48.510;9.076;2022-08-07T03:55:58;7.65;;;6.95;;
6939;SDS011;3509;48.510;9.076;2022-08-07T03:58:25;9.93;;;7.55;;
6939;SDS011;3509;48.510;9.076;2022-08-07T04:00:52;9.32;;;7.63;;
6939;SDS011;3509;48.510;9.076;2022-08-07T04:03:20;7.80;;;7.10;;
6939;SDS011;3509;48.510;9.076;2022-08-07T04:05:46;10.68;;;8.45;;
6939;SDS011;3509;48.510;9.076;2022-08-07T04:08:12;9.30;;;8.10;;
6939;SDS011;3509;48.510;9.076;2022-08-07T04:10:39;8.85;;;7.72;;
6939;SDS011;3509;48.510;9.076;2022-08-07T04:13:06;10.60;;;7.43;;
6939;SDS011;3509;48.510;9.076;2022-08-07T04:15:36;8.60;;;7.75;;
6939;SDS011;3509;48.510;9.076;2022-08-07T04:18:02;10.90;;;8.13;;
6939;SDS011;3509;48.510;9.076;2022-08-07T04:20:28;10.10;;;7.93;;
6939;SDS011;3509;48.510;9.076;2022-08-07T04:22:55;9.60;;;8.50;;
6939;SDS011;3509;48.510;9.076;2022-08-07T04:25:22;9.38;;;8.40;;
6939;SDS011;3509;48.510;9.076;2022-08-07T04:27:49;8.65;;;7.75;;
6939;SDS011;3509;48.510;9.076;2022-08-07T04:30:15;8.60;;;7.80;;
6939;SDS011;3509;48.510;9.076;2022-08-07T04:32:41;7.53;;;6.80;;
6939;SDS011;3509;48.510;9.076;2022-08-07T04:35:07;10.70;;;7.57;;
6939;SDS011;3509;48.510;9.076;2022-08-07T04:37:34;9.15;;;7.57;;
6939;SDS011;3509;48.510;9.076;2022-08-07T04:40:00;9.00;;;8.07;;
6939;SDS011;3509;48.510;9.076;2022-08-07T04:42:27;8.63;;;7.63;;
6939;SDS011;3509;48.510;9.076;2022-08-07T04:44:56;12.27;;;7.90;;
6939;SDS011;3509;48.510;9.076;2022-08-07T04:47:28;7.47;;;6.75;;
6939;SDS011;3509;48.510;9.076;2022-08-07T04:50:02;8.20;;;7.50;;
6939;SDS011;3509;48.510;9.076;2022-08-07T04:52:40;8.07;;;7.30;;
6939;SDS011;3509;48.510;9.076;2022-08-07T04:55:28;7.80;;;6.70;;
6939;SDS011;3509;48.510;9.076;2022-08-07T04:58:18;7.38;;;6.78;;
6939;SDS011;3509;48.510;9.076;2022-08-07T05:06:16;9.82;;;6.60;;
6939;SDS011;3509;48.510;9.076;2022-08-07T05:08:51;6.68;;;6.07;;
6939;SDS011;3509;48.510;9.076;2022-08-07T05:11:41;7.20;;;6.50;;
6939;SDS011;3509;48.510;9.076;2022-08-07T05:14:15;8.63;;;6.22;;
6939;SDS011;3509;48.510;9.076;2022-08-07T05:16:46;6.25;;;5.72;;
6939;SDS011;3509;48.510;9.076;2022-08-07T05:19:16;7.68;;;5.30;;
6939;SDS011;3509;48.510;9.076;2022-08-07T05:21:50;5.63;;;5.13;;
6939;SDS011;3509;48.510;9.076;2022-08-07T05:24:18;5.65;;;5.10;;
6939;SDS011;3509;48.510;9.076;2022-08-07T05:26:47;9.60;;;5.00;;
6939;SDS011;3509;48.510;9.076;2022-08-07T05:29:16;5.95;;;5.45;;
6939;SDS011;3509;48.510;9.076;2022-08-07T05:31:43;4.70;;;4.30;;
6939;SDS011;3509;48.510;9.076;2022-08-07T05:34:12;5.00;;;3.95;;
6939;SDS011;3509;48.510;9.076;2022-08-07T05:36:41;4.15;;;3.10;;
6939;SDS011;3509;48.510;9.076;2022-08-07T05:39:10;3.85;;;2.47;;
6939;SDS011;3509;48.510;9.076;2022-08-07T05:41:37;5.75;;;2.83;;
6939;SDS011;3509;48.510;9.076;2022-08-07T05:44:03;2.33;;;2.13;;
6939;SDS011;3509;48.510;9.076;2022-08-07T05:46:30;3.03;;;2.33;;
6939;SDS011;3509;48.510;9.076;2022-08-07T05:48:55;4.15;;;2.30;;
6939;SDS011;3509;48.510;9.076;2022-08-07T05:51:22;2.72;;;2.40;;
6939;SDS011;3509;48.510;9.076;2022-08-07T05:53:48;4.93;;;2.88;;
6939;SDS011;3509;48.510;9.076;2022-08-07T05:56:14;4.45;;;3.13;;
6939;SDS011;3509;48.510;9.076;2022-08-07T05:58:43;4.00;;;3.05;;
6939;SDS011;3509;48.510;9.076;2022-08-07T06:01:11;3.95;;;2.70;;
6939;SDS011;3509;48.510;9.076;2022-08-07T06:03:39;2.83;;;2.58;;
6939;SDS011;3509;48.510;9.076;2022-08-07T06:06:09;3.30;;;3.00;;
6939;SDS011;3509;48.510;9.076;2022-08-07T06:08:36;3.72;;;2.95;;
6939;SDS011;3509;48.510;9.076;2022-08-07T06:11:05;3.17;;;2.80;;
6939;SDS011;3509;48.510;9.076;2022-08-07T06:13:31;4.30;;;3.00;;
6939;SDS011;3509;48.510;9.076;2022-08-07T06:15:56;3.83;;;2.45;;
6939;SDS011;3509;48.510;9.076;2022-08-07T06:18:25;2.40;;;2.20;;
6939;SDS011;3509;48.510;9.076;2022-08-07T06:20:51;2.60;;;2.10;;
6939;SDS011;3509;48.510;9.076;2022-08-07T06:23:18;3.13;;;2.20;;
6939;SDS011;3509;48.510;9.076;2022-08-07T06:25:43;3.15;;;2.15;;
6939;SDS011;3509;48.510;9.076;2022-08-07T06:28:09;2.75;;;1.98;;
6939;SDS011;3509;48.510;9.076;2022-08-07T06:30:36;3.47;;;2.17;;
6939;SDS011;3509;48.510;9.076;2022-08-07T06:33:04;3.63;;;2.13;;
6939;SDS011;3509;48.510;9.076;2022-08-07T06:35:30;4.55;;;2.03;;
6939;SDS011;3509;48.510;9.076;2022-08-07T06:37:58;2.72;;;2.00;;
6939;SDS011;3509;48.510;9.076;2022-08-07T06:40:24;3.15;;;2.03;;
6939;SDS011;3509;48.510;9.076;2022-08-07T06:42:51;2.42;;;2.10;;
6939;SDS011;3509;48.510;9.076;2022-08-07T06:45:18;2.70;;;1.95;;
6939;SDS011;3509;48.510;9.076;2022-08-07T06:47:47;3.75;;;2.28;;
6939;SDS011;3509;48.510;9.076;2022-08-07T06:50:13;2.42;;;2.05;;
6939;SDS011;3509;48.510;9.076;2022-08-07T06:52:41;6.35;;;2.60;;
6939;SDS011;3509;48.510;9.076;2022-08-07T06:55:08;2.72;;;2.10;;
6939;SDS011;3509;48.510;9.076;2022-08-07T06:57:38;5.40;;;2.10;;
6939;SDS011;3509;48.510;9.076;2022-08-07T07:00:05;4.93;;;2.25;;
6939;SDS011;3509;48.510;9.076;2022-08-07T07:02:31;2.20;;;2.00;;
6939;SDS011;3509;48.510;9.076;2022-08-07T07:04:58;2.30;;;2.10;;
6939;SDS011;3509;48.510;9.076;2022-08-07T07:07:24;2.40;;;2.20;;
6939;SDS011;3509;48.510;9.076;2022-08-07T07:09:50;2.53;;;2.30;;
6939;SDS011;3509;48.510;9.076;2022-08-07T07:12:18;4.65;;;2.40;;
6939;SDS011;3509;48.510;9.076;2022-08-07T07:20:12;3.13;;;2.40;;
6939;SDS011;3509;48.510;9.076;2022-08-07T07:22:42;2.63;;;2.28;;
6939;SDS011;3509;48.510;9.076;2022-08-07T07:25:09;3.88;;;2.42;;
6939;SDS011;3509;48.510;9.076;2022-08-07T07:27:39;2.60;;;2.30;;
6939;SDS011;3509;48.510;9.076;2022-08-07T07:30:09;3.63;;;2.72;;
6939;SDS011;3509;48.510;9.076;2022-08-07T07:32:36;3.88;;;2.20;;
6939;SDS011;3509;48.510;9.076;2022-08-07T07:35:04;2.97;;;2.63;;
6939;SDS011;3509;48.510;9.076;2022-08-07T07:37:32;2.60;;;2.40;;
6939;SDS011;3509;48.510;9.076;2022-08-07T07:40:00;3.00;;;2.30;;
6939;SDS011;3509;48.510;9.076;2022-08-07T07:42:29;2.65;;;2.40;;
6939;SDS011;3509;48.510;9.076;2022-08-07T07:44:57;5.60;;;2.85;;
6939;SDS011;3509;48.510;9.076;2022-08-07T07:47:29;3.65;;;2.17;;
6939;SDS011;3509;48.510;9.076;2022-08-07T07:49:57;2.90;;;2.45;;
6939;SDS011;3509;48.510;9.076;2022-08-07T07:52:24;3.80;;;2.30;;
6939;SDS011;3509;48.510;9.076;2022-08-07T07:54:51;6.75;;;2.58;;
6939;SDS011;3509;48.510;9.076;2022-08-07T07:57:20;2.28;;;2.13;;
6939;SDS011;3509;48.510;9.076;2022-08-07T07:59:47;2.25;;;2.05;;
6939;SDS011;3509;48.510;9.076;2022-08-07T08:02:15;2.38;;;2.10;;
6939;SDS011;3509;48.510;9.076;2022-08-07T08:04:43;2.10;;;2.00;;
6939;SDS011;3509;48.510;9.076;2022-08-07T08:07:09;3.95;;;2.22;;
6939;SDS011;3509;48.510;9.076;2022-08-07T08:09:36;3.65;;;2.10;;
6939;SDS011;3509;48.510;9.076;2022-08-07T08:12:04;2.65;;;2.08;;
6939;SDS011;3509;48.510;9.076;2022-08-07T08:14:31;2.28;;;2.08;;
6939;SDS011;3509;48.510;9.076;2022-08-07T08:16:59;3.35;;;2.20;;
6939;SDS011;3509;48.510;9.076;2022-08-07T08:19:27;3.67;;;1.92;;
6939;SDS011;3509;48.510;9.076;2022-08-07T08:21:57;2.95;;;2.00;;
6939;SDS011;3509;48.510;9.076;2022-08-07T08:24:44;2.60;;;2.17;;
6939;SDS011;3509;48.510;9.076;2022-08-07T08:27:32;3.13;;;2.00;;
6939;SDS011;3509;48.510;9.076;2022-08-07T08:30:06;4.78;;;2.20;;
6939;SDS011;3509;48.510;9.076;2022-08-07T08:32:40;3.95;;;1.63;;
6939;SDS011;3509;48.510;9.076;2022-08-07T08:35:11;2.63;;;2.00;;
6939;SDS011;3509;48.510;9.076;2022-08-07T08:37:41;4.05;;;2.17;;
6939;SDS011;3509;48.510;9.076;2022-08-07T08:40:14;2.30;;;2.00;;
6939;SDS011;3509;48.510;9.076;2022-08-07T08:45:45;2.05;;;1.83;;
6939;SDS011;3509;48.510;9.076;2022-08-07T08:50:39;3.03;;;1.80;;
6939;SDS011;3509;48.510;9.076;2022-08-07T08:55:56;2.55;;;1.67;;
6939;SDS011;3509;48.510;9.076;2022-08-07T09:01:26;3.60;;;1.60;;
6939;SDS011;3509;48.510;9.076;2022-08-07T09:07:01;1.48;;;1.38;;
6939;SDS011;3509;48.510;9.076;2022-08-07T09:09:58;1.92;;;1.50;;
6939;SDS011;3509;48.510;9.076;2022-08-07T09:15:23;1.55;;;1.45;;
6939;SDS011;3509;48.510;9.076;2022-08-07T09:21:14;2.90;;;1.50;;
6939;SDS011;3509;48.510;9.076;2022-08-07T09:27:01;2.03;;;1.45;;
6939;SDS011;3509;48.510;9.076;2022-08-07T09:49:05;3.95;;;1.33;;
6939;SDS011;3509;48.510;9.076;2022-08-07T09:51:58;1.48;;;1.27;;
6939;SDS011;3509;48.510;9.076;2022-08-07T09:54:29;2.22;;;1.27;;
6939;SDS011;3509;48.510;9.076;2022-08-07T09:57:07;1.77;;;1.30;;
6939;SDS011;3509;48.510;9.076;2022-08-07T10:33:26;1.20;;;1.10;;
6939;SDS011;3509;48.510;9.076;2022-08-07T10:39:22;2.40;;;1.33;;
6939;SDS011;3509;48.510;9.076;2022-08-07T10:42:24;1.40;;;1.30;;
6939;SDS011;3509;48.510;9.076;2022-08-07T10:45:25;2.22;;;1.42;;
6939;SDS011;3509;48.510;9.076;2022-08-07T10:48:02;1.48;;;1.10;;
6939;SDS011;3509;48.510;9.076;2022-08-07T10:50:56;1.23;;;1.10;;
6939;SDS011;3509;48.510;9.076;2022-08-07T10:53:35;1.33;;;1.05;;
6939;SDS011;3509;48.510;9.076;2022-08-07T11:01:52;1.33;;;1.20;;
6939;SDS011;3509;48.510;9.076;2022-08-07T11:10:19;1.45;;;1.23;;
6939;SDS011;3509;48.510;9.076;2022-08-07T11:13:05;1.20;;;1.10;;
6939;SDS011;3509;48.510;9.076;2022-08-07T11:15:38;1.35;;;1.15;;
6939;SDS011;3509;48.510;9.076;2022-08-07T11:18:09;2.30;;;1.20;;
6939;SDS011;3509;48.510;9.076;2022-08-07T11:20:47;1.38;;;1.20;;
6939;SDS011;3509;48.510;9.076;2022-08-07T11:26:00;2.55;;;1.30;;
6939;SDS011;3509;48.510;9.076;2022-08-07T11:28:45;1.13;;;1.05;;
6939;SDS011;3509;48.510;9.076;2022-08-07T11:31:21;2.53;;;1.10;;
6939;SDS011;3509;48.510;9.076;2022-08-07T11:33:56;1.60;;;1.20;;
6939;SDS011;3509;48.510;9.076;2022-08-07T11:36:42;4.43;;;1.30;;
6939;SDS011;3509;48.510;9.076;2022-08-07T11:47:14;1.75;;;1.40;;
6939;SDS011;3509;48.510;9.076;2022-08-07T11:49:58;1.40;;;1.30;;
6939;SDS011;3509;48.510;9.076;2022-08-07T11:53:02;1.30;;;1.20;;
6939;SDS011;3509;48.510;9.076;2022-08-07T12:01:47;1.20;;;1.10;;
6939;SDS011;3509;48.510;9.076;2022-08-07T12:09:53;2.80;;;1.20;;
6939;SDS011;3509;48.510;9.076;2022-08-07T12:12:27;1.23;;;1.13;;
6939;SDS011;3509;48.510;9.076;2022-08-07T12:15:26;2.63;;;1.23;;
6939;SDS011;3509;48.510;9.076;2022-08-07T12:25:59;3.25;;;1.20;;
6939;SDS011;3509;48.510;9.076;2022-08-07T12:30:58;1.42;;;1.30;;
6939;SDS011;3509;48.510;9.076;2022-08-07T12:33:29;1.52;;;1.40;;
6939;SDS011;3509;48.510;9.076;2022-08-07T12:35:56;3.65;;;1.20;;
6939;SDS011;3509;48.510;9.076;2022-08-07T12:38:23;1.58;;;1.33;;
6939;SDS011;3509;48.510;9.076;2022-08-07T12:40:52;1.70;;;1.42;;
6939;SDS011;3509;48.510;9.076;2022-08-07T12:43:21;3.85;;;1.48;;
6939;SDS011;3509;48.510;9.076;2022-08-07T12:48:31;3.65;;;1.40;;
6939;SDS011;3509;48.510;9.076;2022-08-07T12:51:16;2.17;;;1.48;;
6939;SDS011;3509;48.510;9.076;2022-08-07T12:53:48;1.95;;;1.33;;
6939;SDS011;3509;48.510;9.076;2022-08-07T12:56:32;1.95;;;1.30;;
6939;SDS011;3509;48.510;9.076;2022-08-07T12:59:00;1.38;;;1.27;;
6939;SDS011;3509;48.510;9.076;2022-08-07T13:05:16;1.80;;;1.30;;
6939;SDS011;3509;48.510;9.076;2022-08-07T13:21:06;1.55;;;1.20;;
6939;SDS011;3509;48.510;9.076;2022-08-07T13:23:37;2.95;;;1.40;;
6939;SDS011;3509;48.510;9.076;2022-08-07T13:31:53;1.67;;;1.40;;
6939;SDS011;3509;48.510;9.076;2022-08-07T13:37:20;2.88;;;1.40;;
6939;SDS011;3509;48.510;9.076;2022-08-07T13:40:12;3.90;;;1.25;;
6939;SDS011;3509;48.510;9.076;2022-08-07T13:42:39;1.65;;;1.20;;
6939;SDS011;3509;48.510;9.076;2022-08-07T13:45:06;1.52;;;1.27;;
6939;SDS011;3509;48.510;9.076;2022-08-07T13:47:36;1.45;;;1.30;;
6939;SDS011;3509;48.510;9.076;2022-08-07T13:50:03;1.75;;;1.23;;
6939;SDS011;3509;48.510;9.076;2022-08-07T13:52:32;2.75;;;1.30;;
6939;SDS011;3509;48.510;9.076;2022-08-07T13:55:04;3.20;;;1.40;;
6939;SDS011;3509;48.510;9.076;2022-08-07T13:57:38;2.28;;;1.30;;
6939;SDS011;3509;48.510;9.076;2022-08-07T14:00:07;2.47;;;1.40;;
6939;SDS011;3509;48.510;9.076;2022-08-07T14:02:34;3.92;;;1.50;;
6939;SDS011;3509;48.510;9.076;2022-08-07T14:05:02;2.40;;;1.50;;
6939;SDS011;3509;48.510;9.076;2022-08-07T14:07:37;2.10;;;1.33;;
6939;SDS011;3509;48.510;9.076;2022-08-07T14:10:10;3.28;;;1.30;;
6939;SDS011;3509;48.510;9.076;2022-08-07T14:18:03;3.00;;;1.40;;
6939;SDS011;3509;48.510;9.076;2022-08-07T14:20:31;4.53;;;1.52;;
6939;SDS011;3509;48.510;9.076;2022-08-07T14:23:02;1.92;;;1.45;;
6939;SDS011;3509;48.510;9.076;2022-08-07T14:25:35;1.83;;;1.50;;
6939;SDS011;3509;48.510;9.076;2022-08-07T14:28:03;2.38;;;1.52;;
6939;SDS011;3509;48.510;9.076;2022-08-07T14:30:33;1.67;;;1.38;;
6939;SDS011;3509;48.510;9.076;2022-08-07T14:33:01;2.78;;;1.20;;
6939;SDS011;3509;48.510;9.076;2022-08-07T14:35:35;4.05;;;1.48;;
6939;SDS011;3509;48.510;9.076;2022-08-07T14:38:02;1.80;;;1.70;;
6939;SDS011;3509;48.510;9.076;2022-08-07T14:40:29;2.25;;;1.40;;
6939;SDS011;3509;48.510;9.076;2022-08-07T14:43:08;1.52;;;1.42;;
6939;SDS011;3509;48.510;9.076;2022-08-07T14:45:44;1.38;;;1.27;;
6939;SDS011;3509;48.510;9.076;2022-08-07T14:48:12;3.00;;;1.60;;
6939;SDS011;3509;48.510;9.076;2022-08-07T14:50:41;1.90;;;1.67;;
6939;SDS011;3509;48.510;9.076;2022-08-07T14:53:09;3.35;;;1.50;;
6939;SDS011;3509;48.510;9.076;2022-08-07T14:55:36;3.55;;;1.40;;
6939;SDS011;3509;48.510;9.076;2022-08-07T14:58:06;3.35;;;1.58;;
6939;SDS011;3509;48.510;9.076;2022-08-07T15:00:33;1.40;;;1.30;;
6939;SDS011;3509;48.510;9.076;2022-08-07T15:03:03;1.55;;;1.33;;
6939;SDS011;3509;48.510;9.076;2022-08-07T15:05:30;2.13;;;1.30;;
6939;SDS011;3509;48.510;9.076;2022-08-07T15:07:57;2.45;;;1.40;;
6939;SDS011;3509;48.510;9.076;2022-08-07T15:10:24;4.85;;;1.48;;
6939;SDS011;3509;48.510;9.076;2022-08-07T15:12:52;2.63;;;1.70;;
6939;SDS011;3509;48.510;9.076;2022-08-07T15:15:23;3.80;;;1.52;;
6939;SDS011;3509;48.510;9.076;2022-08-07T15:17:57;1.60;;;1.50;;
6939;SDS011;3509;48.510;9.076;2022-08-07T15:20:35;2.45;;;1.60;;
6939;SDS011;3509;48.510;9.076;2022-08-07T15:23:11;1.88;;;1.60;;
6939;SDS011;3509;48.510;9.076;2022-08-07T15:25:44;1.70;;;1.60;;
6939;SDS011;3509;48.510;9.076;2022-08-07T15:28:18;3.13;;;1.40;;
6939;SDS011;3509;48.510;9.076;2022-08-07T15:30:46;2.20;;;1.48;;
6939;SDS011;3509;48.510;9.076;2022-08-07T15:33:17;1.35;;;1.25;;
6939;SDS011;3509;48.510;9.076;2022-08-07T15:35:48;2.17;;;1.30;;
6939;SDS011;3509;48.510;9.076;2022-08-07T15:38:15;1.55;;;1.42;;
6939;SDS011;3509;48.510;9.076;2022-08-07T15:40:45;1.38;;;1.27;;
6939;SDS011;3509;48.510;9.076;2022-08-07T15:43:21;1.70;;;1.60;;
6939;SDS011;3509;48.510;9.076;2022-08-07T15:45:48;3.00;;;1.70;;
6939;SDS011;3509;48.510;9.076;2022-08-07T15:48:24;1.77;;;1.58;;
6939;SDS011;3509;48.510;9.076;2022-08-07T15:50:56;2.15;;;1.42;;
6939;SDS011;3509;48.510;9.076;2022-08-07T15:53:28;2.13;;;1.50;;
6939;SDS011;3509;48.510;9.076;2022-08-07T15:56:01;3.67;;;1.60;;
6939;SDS011;3509;48.510;9.076;2022-08-07T15:58:37;1.55;;;1.35;;
6939;SDS011;3509;48.510;9.076;2022-08-07T16:01:14;1.65;;;1.55;;
6939;SDS011;3509;48.510;9.076;2022-08-07T16:03:47;4.15;;;1.70;;
6939;SDS011;3509;48.510;9.076;2022-08-07T16:06:15;7.38;;;6.28;;
6939;SDS011;3509;48.510;9.076;2022-08-07T16:08:53;7.15;;;4.35;;
6939;SDS011;3509;48.510;9.076;2022-08-07T16:11:31;2.25;;;1.63;;
6939;SDS011;3509;48.510;9.076;2022-08-07T16:24:51;2.75;;;1.80;;
6939;SDS011;3509;48.510;9.076;2022-08-07T16:27:37;3.65;;;3.00;;
6939;SDS011;3509;48.510;9.076;2022-08-07T16:30:14;4.72;;;3.75;;
6939;SDS011;3509;48.510;9.076;2022-08-07T16:32:43;2.28;;;2.08;;
6939;SDS011;3509;48.510;9.076;2022-08-07T16:35:17;1.55;;;1.42;;
6939;SDS011;3509;48.510;9.076;2022-08-07T16:40:43;2.08;;;1.50;;
6939;SDS011;3509;48.510;9.076;2022-08-07T16:55:00;1.73;;;1.60;;
6939;SDS011;3509;48.510;9.076;2022-08-07T17:00:26;1.60;;;1.50;;
6939;SDS011;3509;48.510;9.076;2022-08-07T17:03:16;2.53;;;1.60;;
6939;SDS011;3509;48.510;9.076;2022-08-07T17:06:03;1.52;;;1.42;;
6939;SDS011;3509;48.510;9.076;2022-08-07T17:09:09;3.65;;;1.80;;
6939;SDS011;3509;48.510;9.076;2022-08-07T17:14:47;2.78;;;1.60;;
6939;SDS011;3509;48.510;9.076;2022-08-07T17:17:27;3.30;;;1.67;;
6939;SDS011;3509;48.510;9.076;2022-08-07T17:19:55;1.60;;;1.40;;
6939;SDS011;3509;48.510;9.076;2022-08-07T17:22:37;3.50;;;1.50;;
6939;SDS011;3509;48.510;9.076;2022-08-07T17:25:18;2.78;;;1.52;;
6939;SDS011;3509;48.510;9.076;2022-08-07T17:30:26;1.92;;;1.50;;
6939;SDS011;3509;48.510;9.076;2022-08-07T17:33:17;2.35;;;1.88;;
6939;SDS011;3509;48.510;9.076;2022-08-07T17:44:29;3.30;;;1.98;;
6939;SDS011;3509;48.510;9.076;2022-08-07T17:47:12;3.80;;;1.90;;
6939;SDS011;3509;48.510;9.076;2022-08-07T17:55:12;2.17;;;1.70;;
6939;SDS011;3509;48.510;9.076;2022-08-07T18:00:08;1.90;;;1.67;;
6939;SDS011;3509;48.510;9.076;2022-08-07T18:05:22;1.95;;;1.58;;
6939;SDS011;3509;48.510;9.076;2022-08-07T18:11:05;1.45;;;1.35;;
6939;SDS011;3509;48.510;9.076;2022-08-07T18:13:43;1.50;;;1.40;;
6939;SDS011;3509;48.510;9.076;2022-08-07T18:19:07;1.55;;;1.45;;
6939;SDS011;3509;48.510;9.076;2022-08-07T18:21:41;2.00;;;1.40;;
6939;SDS011;3509;48.510;9.076;2022-08-07T18:27:11;1.52;;;1.40;;
6939;SDS011;3509;48.510;9.076;2022-08-07T18:35:20;1.67;;;1.20;;
6939;SDS011;3509;48.510;9.076;2022-08-07T18:56:06;6.95;;;1.50;;
6939;SDS011;3509;48.510;9.076;2022-08-07T18:59:09;1.75;;;1.40;;
6939;SDS011;3509;48.510;9.076;2022-08-07T19:04:20;2.15;;;1.60;;
6939;SDS011;3509;48.510;9.076;2022-08-07T19:07:04;3.03;;;1.65;;
6939;SDS011;3509;48.510;9.076;2022-08-07T19:09:43;3.22;;;1.55;;
6939;SDS011;3509;48.510;9.076;2022-08-07T19:12:19;4.57;;;2.22;;
6939;SDS011;3509;48.510;9.076;2022-08-07T19:20:35;2.75;;;1.63;;
6939;SDS011;3509;48.510;9.076;2022-08-07T19:23:24;2.25;;;1.40;;
6939;SDS011;3509;48.510;9.076;2022-08-07T19:25:55;2.08;;;1.50;;
6939;SDS011;3509;48.510;9.076;2022-08-07T19:28:25;1.40;;;1.23;;
6939;SDS011;3509;48.510;9.076;2022-08-07T19:30:54;3.15;;;1.40;;
6939;SDS011;3509;48.510;9.076;2022-08-07T19:33:23;1.60;;;1.50;;
6939;SDS011;3509;48.510;9.076;2022-08-07T19:35:53;1.60;;;1.42;;
6939;SDS011;3509;48.510;9.076;2022-08-07T19:38:20;2.30;;;1.42;;
6939;SDS011;3509;48.510;9.076;2022-08-07T19:40:50;4.75;;;1.60;;
6939;SDS011;3509;48.510;9.076;2022-08-07T19:43:23;1.80;;;1.50;;
6939;SDS011;3509;48.510;9.076;2022-08-07T19:45:51;2.20;;;1.67;;
6939;SDS011;3509;48.510;9.076;2022-08-07T19:48:22;2.10;;;1.50;;
6939;SDS011;3509;48.510;9.076;2022-08-07T19:50:55;1.92;;;1.40;;
6939;SDS011;3509;48.510;9.076;2022-08-07T19:53:24;1.98;;;1.50;;
6939;SDS011;3509;48.510;9.076;2022-08-07T19:55:52;4.45;;;1.65;;
6939;SDS011;3509;48.510;9.076;2022-08-07T19:58:19;1.42;;;1.30;;
6939;SDS011;3509;48.510;9.076;2022-08-07T20:00:47;2.05;;;1.60;;
6939;SDS011;3509;48.510;9.076;2022-08-07T20:03:17;2.83;;;1.50;;